Nordic Philip — 5BZH2 — position and weather

sailwx.info

Track history (hours):
 
Tides and Currents Weather Stations Pressure Air Temp Water Temp Dewpoint Dewpoint Depression Visibility Wind Speed Wind Dir Waves Ship Positions

Nordic Philip

Last reported at 2016-Sep-25 17:15 UTC. Time now 2016-Sep-29 20:27 UTC.
Position N 55°21' E 019°04'.

Length 152 m; draft 7.2 m.

Type: Ship (hazmat cat A). MMSI: 212018000.

Date/timePositionNaut miles runAvg speedWind from/ knotsBaromVisibWave heightAir tempDewpointWater temp
2016-Sep-25 17:15N 55°21' E 019°04'1319.0
2016-Sep-25 16:33N 55°08' E 019°10'1918.7
2016-Sep-25 15:32N 54°50' E 019°20'1111.4
2016-Sep-25 14:33N 54°44' E 019°36'26 8.4
2016-Sep-25 11:29N 54°41' E 020°21'19 0.8
2016-Sep-24 10:30N 54°39' E 019°48'0 0.0
2016-Sep-24 09:24N 54°39' E 019°48'0 0.0
2016-Sep-24 03:30N 54°39' E 019°48'0 0.1
2016-Sep-24 02:33N 54°39' E 019°48'1110.6
2016-Sep-24 01:33N 54°45' E 019°33'1313.2
2016-Sep-24 00:33N 54°50' E 019°12'15413.7
2016-Sep-23 13:21N 54°38' E 014°46'5815.3
2016-Sep-23 09:32N 54°45' E 013°06'4214.2
2016-Sep-23 06:33N 54°24' E 012°02'3115.3
2016-Sep-23 04:33N 54°34' E 011°12'1515.4
2016-Sep-23 03:33N 54°34' E 010°46'1414.2
2016-Sep-23 02:33N 54°30' E 010°22'1111.0
2016-Sep-23 01:33N 54°22' E 010°10'3 3.4
2016-Sep-23 00:33N 54°22' E 010°04'7 6.9
2016-Sep-22 23:33N 54°22' E 009°52'22 7.0
2016-Sep-22 20:22N 54°09' E 009°21'45 5.7
2016-Sep-22 12:33N 53°39' E 008°25'5 0.7
2016-Sep-22 04:33N 53°35' E 008°32'0 0.0
2016-Sep-22 03:33N 53°35' E 008°32'24 7.8
2016-Sep-22 00:33N 53°50' E 008°02'7 7.0
2016-Sep-21 23:33N 53°54' E 007°52'0 0.0
2016-Sep-21 22:33N 53°54' E 007°52'0 0.0
2016-Sep-21 19:33N 53°54' E 007°52'4113.6
2016-Sep-21 16:34N 53°51' E 009°01'38 5.4
2016-Sep-21 09:34N 53°32' E 009°56'2 1.5
2016-Sep-21 08:26N 53°31' E 009°56'0 0.0
2016-Sep-21 05:32N 53°31' E 009°56'0 0.0
2016-Sep-21 03:32N 53°31' E 009°56'0 0.0
2016-Sep-21 02:32N 53°31' E 009°56'2 0.2
2016-Sep-20 17:31N 53°32' E 009°55'0 0.0
2016-Sep-20 14:31N 53°32' E 009°55'0 0.0
2016-Sep-20 13:31N 53°32' E 009°55'1 0.2
2016-Sep-20 10:30N 53°32' E 009°55'0 0.0
2016-Sep-20 08:30N 53°32' E 009°55'0 0.0
2016-Sep-20 07:30N 53°32' E 009°55'0 0.0
2016-Sep-20 06:30N 53°32' E 009°55'23 5.8
2016-Sep-20 02:34N 53°46' E 009°24'14 4.5
2016-Sep-19 23:33N 53°59' E 009°17'27 6.4
2016-Sep-19 19:24N 54°20' E 009°44'5 6.2
2016-Sep-19 18:33N 54°21' E 009°53'9 4.4
2016-Sep-19 16:33N 54°22' E 010°08'14 7.1
2016-Sep-19 14:33N 54°32' E 010°26'1515.2
2016-Sep-19 13:33N 54°35' E 010°51'1615.7
2016-Sep-19 12:33N 54°34' E 011°18'1716.8
2016-Sep-19 11:33N 54°27' E 011°44'6715.5
2016-Sep-19 07:14N 54°57' E 013°28'1116.6
2016-Sep-19 06:33N 55°01' E 013°47'4815.9
2016-Sep-19 03:33N 55°31' E 014°52'1716.6
2016-Sep-19 02:33N 55°39' E 015°17'  
Track history (hours):
 
Tides and Currents Weather Stations Pressure Air Temp Water Temp Dewpoint Dewpoint Depression Visibility Wind Speed Wind Dir Waves Ship Positions

Nordic Philip

Last reported at 2016-Sep-25 17:15 UTC. Time now 2016-Sep-29 20:27 UTC.
Position N 55°21' E 019°04'.

Length 152 m; draft 7.2 m.

Type: Ship (hazmat cat A). MMSI: 212018000.

Date/timePositionNaut miles runAvg speedWind from/ knotsBaromVisibWave heightAir tempDewpointWater temp
2016-Sep-25 17:15N 55°21' E 019°04'1319.0
2016-Sep-25 16:33N 55°08' E 019°10'1918.7
2016-Sep-25 15:32N 54°50' E 019°20'1111.4
2016-Sep-25 14:33N 54°44' E 019°36'26 8.4
2016-Sep-25 11:29N 54°41' E 020°21'19 0.8
2016-Sep-24 10:30N 54°39' E 019°48'0 0.0
2016-Sep-24 09:24N 54°39' E 019°48'0 0.0
2016-Sep-24 03:30N 54°39' E 019°48'0 0.1
2016-Sep-24 02:33N 54°39' E 019°48'1110.6
2016-Sep-24 01:33N 54°45' E 019°33'1313.2
2016-Sep-24 00:33N 54°50' E 019°12'15413.7
2016-Sep-23 13:21N 54°38' E 014°46'5815.3
2016-Sep-23 09:32N 54°45' E 013°06'4214.2
2016-Sep-23 06:33N 54°24' E 012°02'3115.3
2016-Sep-23 04:33N 54°34' E 011°12'1515.4
2016-Sep-23 03:33N 54°34' E 010°46'1414.2
2016-Sep-23 02:33N 54°30' E 010°22'1111.0
2016-Sep-23 01:33N 54°22' E 010°10'3 3.4
2016-Sep-23 00:33N 54°22' E 010°04'7 6.9
2016-Sep-22 23:33N 54°22' E 009°52'22 7.0
2016-Sep-22 20:22N 54°09' E 009°21'45 5.7
2016-Sep-22 12:33N 53°39' E 008°25'5 0.7
2016-Sep-22 04:33N 53°35' E 008°32'0 0.0
2016-Sep-22 03:33N 53°35' E 008°32'24 7.8
2016-Sep-22 00:33N 53°50' E 008°02'7 7.0
2016-Sep-21 23:33N 53°54' E 007°52'0 0.0
2016-Sep-21 22:33N 53°54' E 007°52'0 0.0
2016-Sep-21 19:33N 53°54' E 007°52'4113.6
2016-Sep-21 16:34N 53°51' E 009°01'38 5.4
2016-Sep-21 09:34N 53°32' E 009°56'2 1.5
2016-Sep-21 08:26N 53°31' E 009°56'0 0.0
2016-Sep-21 05:32N 53°31' E 009°56'0 0.0
2016-Sep-21 03:32N 53°31' E 009°56'0 0.0
2016-Sep-21 02:32N 53°31' E 009°56'2 0.2
2016-Sep-20 17:31N 53°32' E 009°55'0 0.0
2016-Sep-20 14:31N 53°32' E 009°55'0 0.0
2016-Sep-20 13:31N 53°32' E 009°55'1 0.2
2016-Sep-20 10:30N 53°32' E 009°55'0 0.0
2016-Sep-20 08:30N 53°32' E 009°55'0 0.0
2016-Sep-20 07:30N 53°32' E 009°55'0 0.0
2016-Sep-20 06:30N 53°32' E 009°55'23 5.8
2016-Sep-20 02:34N 53°46' E 009°24'14 4.5
2016-Sep-19 23:33N 53°59' E 009°17'27 6.4
2016-Sep-19 19:24N 54°20' E 009°44'5 6.2
2016-Sep-19 18:33N 54°21' E 009°53'9 4.4
2016-Sep-19 16:33N 54°22' E 010°08'14 7.1
2016-Sep-19 14:33N 54°32' E 010°26'1515.2
2016-Sep-19 13:33N 54°35' E 010°51'1615.7
2016-Sep-19 12:33N 54°34' E 011°18'1716.8
2016-Sep-19 11:33N 54°27' E 011°44'6715.5
2016-Sep-19 07:14N 54°57' E 013°28'1116.6
2016-Sep-19 06:33N 55°01' E 013°47'4815.9
2016-Sep-19 03:33N 55°31' E 014°52'1716.6
2016-Sep-19 02:33N 55°39' E 015°17'  

Dump ship's entire track history